Time;durP1;ratioP1;P1;durP2;ratioP2;P2;SDS_P1;SDS_P2;PMS_P1;PMS_P2;Temp;Humidity;BMP_temperature;BMP_pressure;BME280_temperature;BME280_humidity;BME280_pressure;Samples;Min_cycle;Max_cycle;Signal;HPM_P1;HPM_P2
2022/04/15 00:01:23;;;;;;;3.55;2.35;;;;;;;12.09;nan;101129.91;5007796;28;19917;-72
2022/04/15 00:03:52;;;;;;;3.85;2.20;;;;;;;12.08;nan;101128.25;5011339;28;20037;-73
2022/04/15 00:06:20;;;;;;;2.50;2.00;;;;;;;12.15;nan;101131.09;5007308;28;20500;-72
2022/04/15 00:08:46;;;;;;;2.55;2.10;;;;;;;12.07;nan;101126.56;5006635;28;20498;-73
2022/04/15 00:11:11;;;;;;;3.50;2.10;;;;;;;11.99;nan;101121.16;5007071;28;20103;-73
2022/04/15 00:13:37;;;;;;;2.92;2.22;;;;;;;11.96;nan;101126.72;5010145;28;20121;-72
2022/04/15 00:16:03;;;;;;;2.60;2.10;;;;;;;11.90;nan;101133.47;5008447;28;20034;-73
2022/04/15 00:18:29;;;;;;;3.53;2.22;;;;;;;11.83;nan;101124.38;5009490;28;20041;-72
2022/04/15 00:20:55;;;;;;;4.03;1.92;;;;;;;11.75;nan;101119.00;5008403;28;20069;-73
2022/04/15 00:23:22;;;;;;;3.33;2.10;;;;;;;11.67;nan;101127.63;5008114;28;20048;-73
2022/04/15 00:25:50;;;;;;;2.40;1.90;;;;;;;11.63;nan;101131.56;5008813;28;20033;-73
2022/04/15 00:28:16;;;;;;;4.15;2.65;;;;;;;11.57;nan;101132.13;5007195;28;20058;-73
2022/04/15 00:30:42;;;;;;;3.08;2.28;;;;;;;11.53;nan;101127.28;5007231;28;20128;-72
2022/04/15 00:33:08;;;;;;;3.03;2.10;;;;;;;11.48;nan;101125.03;5007710;28;20034;-73
2022/04/15 00:35:33;;;;;;;3.25;2.03;;;;;;;11.44;nan;101124.50;4990368;28;20038;-72
2022/04/15 00:37:59;;;;;;;4.25;2.10;;;;;;;11.40;nan;101117.81;5008937;28;20030;-72
2022/04/15 00:40:24;;;;;;;2.30;1.67;;;;;;;11.38;nan;101121.59;5006427;28;20056;-73
2022/04/15 00:42:49;;;;;;;3.55;2.20;;;;;;;11.33;nan;101119.38;5009227;28;20337;-72
2022/04/15 00:45:15;;;;;;;2.38;1.75;;;;;;;11.27;nan;101114.63;5008142;28;20050;-72
2022/04/15 00:47:48;;;;;;;2.50;1.95;;;;;;;11.25;nan;101112.16;4989506;28;20412;-73
2022/04/15 00:50:14;;;;;;;2.80;1.70;;;;;;;11.19;nan;101117.16;5007207;28;20565;-73
2022/04/15 00:52:44;;;;;;;2.20;1.70;;;;;;;11.10;nan;101112.72;5007407;28;20037;-72
2022/04/15 00:55:10;;;;;;;1.98;1.52;;;;;;;10.99;nan;101117.19;4989826;28;20038;-72
2022/04/15 00:57:37;;;;;;;;;;;;;;;10.90;nan;101109.25;5007104;28;20499;-73
2022/04/15 01:00:06;;;;;;;2.67;1.80;;;;;;;10.80;nan;101117.19;5007278;28;19917;-73
2022/04/15 01:02:34;;;;;;;1.95;1.63;;;;;;;10.72;nan;101120.50;5006890;28;20037;-72
2022/04/15 01:05:01;;;;;;;2.60;1.67;;;;;;;10.65;nan;101115.91;4989864;28;21456;-72
2022/04/15 01:07:32;;;;;;;2.40;1.80;;;;;;;10.55;nan;101116.72;5004747;28;20033;-72
2022/04/15 01:09:58;;;;;;;3.47;1.97;;;;;;;10.48;nan;101120.88;4988000;28;20087;-72
2022/04/15 01:12:28;;;;;;;2.50;1.90;;;;;;;10.39;nan;101125.22;5006687;28;20547;-72
2022/04/15 01:14:59;;;;;;;3.25;2.33;;;;;;;10.29;nan;101119.03;5006553;28;20038;-72
2022/04/15 01:17:24;;;;;;;;;;;;;;;10.21;nan;101132.91;5005960;28;20054;-72
2022/04/15 01:19:50;;;;;;;2.43;1.70;;;;;;;10.14;nan;101121.19;5007794;28;20366;-72
2022/04/15 01:22:17;;;;;;;3.40;2.10;;;;;;;10.11;nan;101131.22;4989078;28;20805;-73
2022/04/15 01:24:43;;;;;;;3.15;2.38;;;;;;;10.06;nan;101133.41;5006898;28;20068;-72
2022/04/15 01:27:08;;;;;;;2.50;1.83;;;;;;;10.01;nan;101131.19;5006071;28;20057;-72
2022/04/15 01:29:37;;;;;;;2.92;1.83;;;;;;;9.96;nan;101134.22;5005049;28;20594;-72
2022/04/15 01:32:04;;;;;;;2.60;2.10;;;;;;;9.91;nan;101143.50;5004875;28;20068;-72
2022/04/15 01:34:30;;;;;;;4.45;2.70;;;;;;;9.86;nan;101137.78;5006866;28;20091;-72
2022/04/15 01:36:56;;;;;;;3.40;2.28;;;;;;;9.85;nan;101138.75;5005379;28;20398;-72
2022/04/15 01:39:21;;;;;;;2.90;2.10;;;;;;;9.82;nan;101141.63;5007979;28;20041;-72
2022/04/15 01:41:46;;;;;;;2.65;2.13;;;;;;;9.77;nan;101132.31;5009563;28;20076;-72
2022/04/15 01:44:15;;;;;;;4.70;2.70;;;;;;;9.76;nan;101140.38;5009649;28;20041;-73
2022/04/15 01:46:42;;;;;;;3.97;2.80;;;;;;;9.82;nan;101144.28;5011829;28;20141;-72
2022/04/15 01:49:07;;;;;;;5.60;3.60;;;;;;;9.87;nan;101142.94;5009643;28;20037;-72
2022/04/15 01:51:34;;;;;;;3.15;2.53;;;;;;;10.13;nan;101145.09;5008266;28;20419;-72
2022/04/15 01:53:59;;;;;;;4.35;3.15;;;;;;;10.11;nan;101144.44;5009931;28;20046;-72
2022/04/15 01:56:24;;;;;;;4.65;2.92;;;;;;;10.14;nan;101149.44;5006292;28;20433;-72
2022/04/15 01:58:50;;;;;;;3.65;2.40;;;;;;;10.15;nan;101146.66;5006934;28;20085;-73
2022/04/15 02:01:15;;;;;;;5.20;3.05;;;;;;;10.17;nan;101149.16;4988801;28;20058;-72
2022/04/15 02:03:40;;;;;;;3.75;2.60;;;;;;;10.15;nan;101154.59;5007453;28;20557;-72
2022/04/15 02:06:06;;;;;;;;;;;;;;;10.11;nan;101150.53;5007044;28;20041;-72
2022/04/15 02:08:31;;;;;;;4.30;2.97;;;;;;;10.09;nan;101151.66;5006387;28;19932;-72
2022/04/15 02:10:56;;;;;;;4.40;2.80;;;;;;;10.06;nan;101151.91;5007098;28;20376;-72
2022/04/15 02:13:21;;;;;;;3.55;2.80;;;;;;;10.00;nan;101155.91;5006356;28;20434;-72
2022/04/15 02:15:47;;;;;;;3.15;2.45;;;;;;;9.90;nan;101149.75;5006996;28;20038;-72
2022/04/15 02:18:13;;;;;;;3.15;2.47;;;;;;;9.79;nan;101159.41;5005827;28;20079;-72
2022/04/15 02:20:38;;;;;;;2.65;2.08;;;;;;;9.74;nan;101160.78;4987647;28;20150;-72
2022/04/15 02:23:04;;;;;;;2.92;2.13;;;;;;;9.67;nan;101157.00;5006566;28;20225;-72
2022/04/15 02:25:29;;;;;;;3.00;2.13;;;;;;;9.65;nan;101162.41;5005003;28;20038;-72
2022/04/15 02:27:55;;;;;;;4.03;2.67;;;;;;;9.70;nan;101162.00;5002726;28;20438;-72
2022/04/15 02:30:20;;;;;;;3.67;2.30;;;;;;;9.72;nan;101160.91;5005856;28;20073;-72
2022/04/15 02:32:45;;;;;;;2.70;1.90;;;;;;;9.70;nan;101169.94;5006843;28;20042;-72
2022/04/15 02:35:11;;;;;;;3.55;2.33;;;;;;;9.65;nan;101169.50;4990904;28;20041;-72
2022/04/15 02:37:36;;;;;;;2.20;1.77;;;;;;;9.56;nan;101161.41;5008793;28;20390;-72
2022/04/15 02:40:02;;;;;;;2.58;1.60;;;;;;;9.49;nan;101164.69;4993441;28;20053;-72
2022/04/15 02:42:28;;;;;;;2.35;1.80;;;;;;;9.44;nan;101167.72;5009194;28;20030;-72
2022/04/15 02:44:53;;;;;;;3.88;2.10;;;;;;;9.35;nan;101165.84;5011276;28;20030;-73
2022/04/15 02:47:19;;;;;;;3.08;2.38;;;;;;;9.29;nan;101161.88;5012555;28;20080;-72
2022/04/15 02:49:44;;;;;;;3.00;2.33;;;;;;;9.24;nan;101168.53;5012435;28;20045;-72
2022/04/15 02:52:10;;;;;;;2.92;2.13;;;;;;;9.20;nan;101169.72;5008409;28;20135;-72
2022/04/15 02:54:35;;;;;;;2.88;2.10;;;;;;;9.16;nan;101168.34;5009694;28;20036;-72
2022/04/15 02:57:01;;;;;;;2.70;1.90;;;;;;;9.12;nan;101171.19;5008938;28;20491;-72
2022/04/15 02:59:26;;;;;;;3.65;2.42;;;;;;;9.08;nan;101172.44;5010788;28;20454;-72
2022/04/15 03:01:52;;;;;;;3.83;2.72;;;;;;;9.04;nan;101171.00;5010673;28;20038;-72
2022/04/15 03:04:17;;;;;;;3.10;2.60;;;;;;;9.00;nan;101174.03;5010816;28;20471;-73
2022/04/15 03:06:43;;;;;;;3.95;2.88;;;;;;;8.95;nan;101174.41;5010015;28;20045;-72
2022/04/15 03:09:08;;;;;;;3.33;2.63;;;;;;;8.91;nan;101179.09;5010582;28;20049;-72
2022/04/15 03:11:37;;;;;;;3.30;2.60;;;;;;;8.91;nan;101179.09;5009387;28;20061;-72
2022/04/15 03:14:02;;;;;;;4.35;2.70;;;;;;;8.90;nan;101173.94;5007459;28;20529;-75
2022/04/15 03:16:27;;;;;;;3.67;2.40;;;;;;;8.85;nan;101171.69;5009337;28;20034;-72
2022/04/15 03:18:53;;;;;;;2.97;2.33;;;;;;;8.82;nan;101171.94;5008837;28;20061;-72
2022/04/15 03:21:18;;;;;;;4.88;3.10;;;;;;;8.80;nan;101171.22;4991061;28;20068;-72
2022/04/15 03:23:43;;;;;;;4.05;3.05;;;;;;;8.82;nan;101163.16;5008739;28;20038;-75
2022/04/15 03:26:09;;;;;;;3.42;2.40;;;;;;;8.81;nan;101164.13;5009485;28;20045;-73
2022/04/15 03:28:34;;;;;;;3.97;2.95;;;;;;;8.80;nan;101162.47;5006230;28;20394;-72
2022/04/15 03:30:59;;;;;;;5.32;3.30;;;;;;;8.83;nan;101167.50;5009242;28;20041;-72
2022/04/15 03:33:25;;;;;;;4.00;3.55;;;;;;;8.85;nan;101163.75;5008487;28;20038;-72
2022/04/15 03:35:50;;;;;;;5.03;3.80;;;;;;;8.88;nan;101167.94;5009242;28;20133;-72
2022/04/15 03:38:16;;;;;;;4.38;3.45;;;;;;;8.89;nan;101165.19;5009266;28;20080;-72
2022/04/15 03:40:41;;;;;;;7.38;4.18;;;;;;;8.88;nan;101166.13;5007542;28;20081;-72
2022/04/15 03:43:06;;;;;;;6.20;4.07;;;;;;;8.91;nan;101163.28;5008178;28;20041;-72
2022/04/15 03:45:32;;;;;;;4.88;4.00;;;;;;;8.97;nan;101166.38;5005254;28;20395;-72
2022/04/15 03:47:58;;;;;;;5.85;4.00;;;;;;;8.98;nan;101163.59;5007493;28;20483;-72
2022/04/15 03:50:24;;;;;;;5.45;3.85;;;;;;;8.97;nan;101169.84;5009136;28;20133;-72
2022/04/15 03:52:50;;;;;;;5.38;3.72;;;;;;;8.97;nan;101163.72;5008832;28;20041;-72
2022/04/15 03:55:18;;;;;;;4.72;3.65;;;;;;;9.00;nan;101166.94;5008758;28;20418;-72
2022/04/15 03:57:43;;;;;;;4.53;3.90;;;;;;;9.00;nan;101161.66;5008874;28;20026;-72
2022/04/15 04:00:15;;;;;;;5.20;3.50;;;;;;;8.99;nan;101169.72;5009815;28;20172;-72
2022/04/15 04:02:43;;;;;;;5.25;3.63;;;;;;;9.01;nan;101173.03;5009418;28;20090;-72
2022/04/15 04:05:09;;;;;;;8.00;4.68;;;;;;;9.02;nan;101175.56;5007920;28;20113;-72
2022/04/15 04:07:35;;;;;;;6.40;5.03;;;;;;;9.06;nan;101179.63;5009360;28;20116;-72
2022/04/15 04:10:00;;;;;;;5.95;4.95;;;;;;;9.11;nan;101176.63;5008618;28;20457;-72
2022/04/15 04:12:29;;;;;;;8.40;5.82;;;;;;;9.16;nan;101173.63;5006681;28;20783;-73
2022/04/15 04:14:55;;;;;;;7.30;5.15;;;;;;;9.20;nan;101188.22;5009227;28;20033;-73
2022/04/15 04:17:20;;;;;;;8.95;5.70;;;;;;;9.21;nan;101189.91;5006702;28;20495;-73
2022/04/15 04:19:46;;;;;;;8.68;6.03;;;;;;;9.20;nan;101186.44;5008689;28;20057;-72
2022/04/15 04:22:12;;;;;;;8.68;5.88;;;;;;;9.21;nan;101190.72;5006552;28;20038;-72
2022/04/15 04:24:37;;;;;;;8.13;5.78;;;;;;;9.23;nan;101185.34;5008344;28;20073;-72
2022/04/15 04:27:03;;;;;;;9.98;5.50;;;;;;;9.27;nan;101184.97;5008962;28;20537;-72
2022/04/15 04:29:28;;;;;;;7.82;5.97;;;;;;;9.30;nan;101191.78;5004081;28;20083;-72
2022/04/15 04:31:53;;;;;;;8.88;5.80;;;;;;;9.29;nan;101190.09;5007009;28;20160;-73
2022/04/15 04:34:19;;;;;;;7.45;5.20;;;;;;;9.29;nan;101196.19;5006255;28;20045;-72
2022/04/15 04:36:44;;;;;;;6.63;5.00;;;;;;;9.30;nan;101197.06;5008885;28;20643;-75
2022/04/15 04:39:10;;;;;;;8.75;6.15;;;;;;;9.29;nan;101195.38;5007736;28;20038;-73
2022/04/15 04:41:37;;;;;;;7.55;5.80;;;;;;;9.31;nan;101196.09;4990424;28;20030;-72
2022/04/15 04:44:03;;;;;;;7.85;5.78;;;;;;;9.36;nan;101199.16;5004194;28;20084;-73
2022/04/15 04:46:28;;;;;;;6.57;5.72;;;;;;;9.36;nan;101200.00;5006965;28;20038;-73
2022/04/15 04:48:53;;;;;;;9.20;6.82;;;;;;;9.37;nan;101208.78;5007249;28;20526;-73
2022/04/15 04:51:19;;;;;;;9.10;6.13;;;;;;;9.43;nan;101210.06;5007536;28;20502;-72
2022/04/15 04:53:44;;;;;;;8.52;5.90;;;;;;;9.43;nan;101212.69;5005806;28;20112;-72
2022/04/15 04:56:09;;;;;;;8.85;5.75;;;;;;;9.42;nan;101216.31;5006782;28;20052;-73
2022/04/15 04:58:35;;;;;;;9.40;6.65;;;;;;;9.40;nan;101216.44;5007033;28;20062;-72
2022/04/15 05:01:00;;;;;;;9.20;6.63;;;;;;;9.43;nan;101220.63;5007282;28;20050;-75
2022/04/15 05:03:25;;;;;;;11.23;7.22;;;;;;;9.42;nan;101227.72;5007841;28;20046;-74
2022/04/15 05:05:51;;;;;;;9.65;6.43;;;;;;;9.48;nan;101221.06;5007240;28;20037;-75
2022/04/15 05:08:16;;;;;;;9.00;6.10;;;;;;;9.51;nan;101226.94;5006350;28;20502;-75
2022/04/15 05:10:41;;;;;;;7.53;6.38;;;;;;;9.53;nan;101234.72;5006250;28;20246;-74
2022/04/15 05:13:06;;;;;;;8.05;6.65;;;;;;;9.56;nan;101239.78;5005899;28;20029;-75
2022/04/15 05:15:32;;;;;;;7.28;5.60;;;;;;;9.67;nan;101244.16;4989924;28;20395;-75
2022/04/15 05:17:57;;;;;;;6.65;5.30;;;;;;;9.76;nan;101240.72;5007499;28;20502;-75
2022/04/15 05:20:22;;;;;;;6.63;5.10;;;;;;;9.83;nan;101247.19;5004888;28;20048;-75
2022/04/15 05:22:48;;;;;;;6.63;4.97;;;;;;;9.94;nan;101247.13;5006353;28;20415;-75
2022/04/15 05:25:13;;;;;;;6.20;5.00;;;;;;;10.02;nan;101253.56;4988665;28;20046;-75
2022/04/15 05:27:38;;;;;;;6.28;4.60;;;;;;;10.09;nan;101250.25;5006460;28;20038;-74
2022/04/15 05:30:05;;;;;;;5.88;4.40;;;;;;;10.22;nan;101252.66;5004399;28;20273;-75
2022/04/15 05:32:30;;;;;;;;;;;;;;;10.34;nan;101256.09;5007020;28;20038;-75
2022/04/15 05:34:55;;;;;;;;;;;;;;;10.50;nan;101258.25;4989539;28;19967;-75
2022/04/15 05:37:20;;;;;;;7.60;5.03;;;;;;;10.64;nan;101268.47;5006357;28;19921;-75
2022/04/15 05:39:46;;;;;;;7.65;5.15;;;;;;;10.80;nan;101267.97;5006149;28;20309;-75
2022/04/15 05:42:11;;;;;;;7.13;5.38;;;;;;;10.99;nan;101272.50;4989311;28;20087;-75
2022/04/15 05:44:36;;;;;;;7.65;5.50;;;;;;;11.15;nan;101267.47;5009193;28;20033;-75
2022/04/15 05:47:02;;;;;;;7.88;5.35;;;;;;;11.33;nan;101267.66;5008151;28;20290;-75
2022/04/15 05:49:27;;;;;;;5.50;4.45;;;;;;;11.50;nan;101271.41;5007995;28;20064;-75
2022/04/15 05:51:53;;;;;;;7.38;5.20;;;;;;;11.69;nan;101281.16;5007448;28;20403;-74
2022/04/15 05:54:18;;;;;;;5.80;4.90;;;;;;;11.90;nan;101278.38;5004754;28;20506;-75
2022/04/15 05:56:43;;;;;;;8.00;5.60;;;;;;;12.12;nan;101279.88;5007293;28;20183;-74
2022/04/15 05:59:09;;;;;;;7.20;5.70;;;;;;;12.29;nan;101273.81;5006450;28;20057;-75
2022/04/15 06:01:34;;;;;;;6.30;5.15;;;;;;;12.51;nan;101277.94;5005267;28;20038;-75
2022/04/15 06:04:00;;;;;;;;;;;;;;;12.66;nan;101278.28;5008720;28;20044;-75
2022/04/15 06:06:25;;;;;;;6.63;4.97;;;;;;;12.88;nan;101285.03;5006230;28;19933;-75
2022/04/15 06:08:51;;;;;;;7.45;5.18;;;;;;;12.92;nan;101289.06;5008274;28;20069;-75
2022/04/15 06:11:16;;;;;;;7.70;5.20;;;;;;;13.04;nan;101286.19;5012986;28;20034;-75
2022/04/15 06:13:46;;;;;;;5.57;4.20;;;;;;;13.38;nan;101295.22;4995721;28;20399;-75
2022/04/15 06:16:15;;;;;;;6.47;4.20;;;;;;;13.76;nan;101295.06;5009274;28;20072;-75
2022/04/15 06:18:40;;;;;;;7.65;5.25;;;;;;;13.88;nan;101296.47;5010181;28;20034;-75
2022/04/15 06:21:06;;;;;;;5.75;4.20;;;;;;;14.16;nan;101293.69;5009995;28;20049;-75
2022/04/15 06:23:31;;;;;;;7.80;5.60;;;;;;;14.41;nan;101302.63;4992729;28;20030;-75
2022/04/15 06:25:56;;;;;;;5.78;4.45;;;;;;;14.68;nan;101298.97;5010606;28;20030;-75
2022/04/15 06:28:22;;;;;;;7.72;4.85;;;;;;;14.91;nan;101309.88;5005958;28;20073;-75
2022/04/15 06:30:50;;;;;;;6.10;4.53;;;;;;;15.09;nan;101309.78;4993213;28;20119;-75
2022/04/15 06:33:17;;;;;;;5.90;4.70;;;;;;;15.26;nan;101314.16;5009918;28;20211;-75
2022/04/15 06:35:42;;;;;;;5.40;4.03;;;;;;;15.35;nan;101307.03;5009661;28;20269;-75
2022/04/15 06:38:08;;;;;;;5.65;4.53;;;;;;;15.40;nan;101311.88;5008065;28;20034;-75
2022/04/15 06:40:35;;;;;;;5.25;4.20;;;;;;;15.54;nan;101318.34;5010499;28;20044;-75
2022/04/15 06:43:00;;;;;;;5.97;4.15;;;;;;;15.66;nan;101314.38;5011375;28;20092;-75
2022/04/15 06:45:26;;;;;;;4.72;3.63;;;;;;;15.93;nan;101311.41;4993954;28;20030;-75
2022/04/15 06:47:51;;;;;;;6.55;4.70;;;;;;;16.14;nan;101310.88;5013058;28;20026;-75
2022/04/15 06:50:19;;;;;;;6.05;4.10;;;;;;;16.37;nan;101320.03;5009302;28;20129;-76
2022/04/15 06:52:44;;;;;;;7.47;5.10;;;;;;;16.42;nan;101315.00;5008427;28;20038;-75
2022/04/15 06:55:09;;;;;;;7.72;6.20;;;;;;;16.39;nan;101318.00;5009471;28;20042;-75
2022/04/15 06:57:35;;;;;;;7.75;5.57;;;;;;;16.68;nan;101318.25;5010656;28;20038;-75
2022/04/15 07:00:00;;;;;;;7.43;5.32;;;;;;;17.05;nan;101324.00;4993616;28;20378;-76
2022/04/15 07:02:26;;;;;;;7.18;6.10;;;;;;;17.22;nan;101324.72;5008113;28;20065;-75
2022/04/15 07:04:52;;;;;;;7.95;6.25;;;;;;;17.19;nan;101326.75;5010068;28;20514;-75
2022/04/15 07:07:17;;;;;;;9.25;6.80;;;;;;;17.40;nan;101330.66;5010038;28;20037;-76
2022/04/15 07:09:44;;;;;;;10.80;8.57;;;;;;;17.50;nan;101335.75;5008623;28;20201;-76
2022/04/15 07:12:10;;;;;;;11.57;9.02;;;;;;;17.56;nan;101333.19;5009146;28;20120;-76
2022/04/15 07:14:35;;;;;;;15.25;11.65;;;;;;;17.55;nan;101328.84;5010047;28;20449;-76
2022/04/15 07:17:00;;;;;;;16.48;13.65;;;;;;;17.36;nan;101332.00;5009546;28;20298;-75
2022/04/15 07:19:27;;;;;;;16.42;13.30;;;;;;;17.34;nan;101329.50;5008854;28;20131;-76
2022/04/15 07:21:52;;;;;;;15.95;13.05;;;;;;;17.34;nan;101336.69;5008667;28;20041;-75
2022/04/15 07:24:17;;;;;;;16.05;12.40;;;;;;;17.34;nan;101331.34;5007290;28;20034;-76
2022/04/15 07:26:43;;;;;;;13.13;11.57;;;;;;;17.41;nan;101337.66;5008599;28;20109;-76
2022/04/15 07:29:08;;;;;;;19.95;12.52;;;;;;;17.26;nan;101334.06;5009413;28;20057;-75
2022/04/15 07:31:34;;;;;;;15.00;11.55;;;;;;;17.62;nan;101335.16;5009546;28;20486;-76
2022/04/15 07:34:00;;;;;;;12.75;10.15;;;;;;;18.12;nan;101337.47;5008936;28;20414;-76
2022/04/15 07:39:00;;;;;;;9.43;8.05;;;;;;;18.44;nan;101337.13;5009075;28;20129;-76
2022/04/15 07:41:25;;;;;;;13.40;11.52;;;;;;;18.59;nan;101333.63;5007927;28;20045;-76
2022/04/15 07:43:51;;;;;;;13.30;10.10;;;;;;;18.73;nan;101337.31;5009979;28;20035;-76
2022/04/15 07:46:16;;;;;;;9.63;7.28;;;;;;;19.13;nan;101336.00;5007441;28;20108;-76
2022/04/15 07:48:42;;;;;;;10.75;9.02;;;;;;;19.73;nan;101337.50;5008195;28;20137;-73
2022/04/15 07:51:07;;;;;;;12.27;9.93;;;;;;;20.09;nan;101336.56;5008272;28;20050;-76
2022/04/15 07:53:33;;;;;;;8.60;6.75;;;;;;;20.30;nan;101342.91;5009670;28;20072;-74
2022/04/15 07:55:58;;;;;;;10.50;7.43;;;;;;;20.67;nan;101335.53;5007371;28;20491;-74
2022/04/15 07:58:23;;;;;;;7.53;6.35;;;;;;;20.95;nan;101338.97;5010489;28;20534;-74
2022/04/15 08:00:49;;;;;;;7.47;6.60;;;;;;;21.31;nan;101348.63;5010120;28;20033;-76
2022/04/15 08:03:17;;;;;;;8.38;7.43;;;;;;;21.67;nan;101349.34;5010057;28;20055;-74
2022/04/15 08:05:43;;;;;;;11.25;8.95;;;;;;;21.70;nan;101352.44;5011450;28;20034;-74
2022/04/15 08:08:08;;;;;;;7.55;5.53;;;;;;;22.02;nan;101353.50;4992563;28;20030;-74
2022/04/15 08:10:33;;;;;;;7.25;5.68;;;;;;;22.34;nan;101347.50;5004294;28;20098;-74
2022/04/15 08:13:01;;;;;;;7.70;6.32;;;;;;;22.33;nan;101345.81;5005595;28;20031;-74
2022/04/15 08:15:27;;;;;;;9.07;7.20;;;;;;;22.40;nan;101347.47;5004134;28;20427;-74
2022/04/15 08:17:52;;;;;;;8.75;6.68;;;;;;;22.55;nan;101352.66;5011830;28;20030;-74
2022/04/15 08:20:18;;;;;;;6.35;5.00;;;;;;;23.28;nan;101348.84;5012885;28;20034;-74
2022/04/15 08:22:43;;;;;;;10.20;7.78;;;;;;;23.39;nan;101348.19;5012264;28;20044;-74
2022/04/15 08:25:08;;;;;;;6.30;5.57;;;;;;;24.03;nan;101353.59;5011117;28;20049;-74
2022/04/15 08:27:34;;;;;;;6.85;5.72;;;;;;;24.58;nan;101348.28;5009945;28;20034;-74
2022/04/15 08:30:00;;;;;;;8.48;6.95;;;;;;;24.83;nan;101352.78;4992130;28;20049;-74
2022/04/15 08:32:32;;;;;;;6.75;5.70;;;;;;;24.93;nan;101355.78;5007494;28;20030;-74
2022/04/15 08:35:01;;;;;;;9.15;6.65;;;;;;;25.20;nan;101354.41;5009958;28;20041;-74
2022/04/15 08:37:27;;;;;;;9.75;7.88;;;;;;;25.17;nan;101354.88;5009083;28;20121;-74
2022/04/15 08:39:53;;;;;;;7.35;6.15;;;;;;;25.14;nan;101360.69;5011817;28;20113;-74
2022/04/15 08:42:20;;;;;;;7.78;6.63;;;;;;;25.38;nan;101355.41;5007171;28;20057;-74
2022/04/15 08:44:50;;;;;;;8.30;6.57;;;;;;;25.66;nan;101357.50;5006899;28;20041;-74
2022/04/15 08:47:15;;;;;;;8.32;6.85;;;;;;;25.76;nan;101363.19;5005430;28;20042;-74
2022/04/15 08:49:40;;;;;;;7.32;6.10;;;;;;;25.71;nan;101362.25;5009597;28;20557;-74
2022/04/15 08:52:08;;;;;;;9.02;6.20;;;;;;;25.40;nan;101364.97;5008206;28;20038;-74
2022/04/15 08:54:34;;;;;;;6.13;4.68;;;;;;;25.32;nan;101359.88;5009271;28;20026;-74
2022/04/15 08:56:59;;;;;;;8.05;6.15;;;;;;;24.98;nan;101359.47;5009342;28;20036;-74
2022/04/15 08:59:25;;;;;;;6.68;5.07;;;;;;;24.95;nan;101361.78;5010532;28;20033;-74
2022/04/15 09:01:50;;;;;;;6.88;5.60;;;;;;;24.84;nan;101357.13;5008668;28;20042;-74
2022/04/15 09:04:18;;;;;;;6.75;4.50;;;;;;;24.95;nan;101361.78;5006749;28;20037;-74
2022/04/15 09:06:43;;;;;;;6.07;5.05;;;;;;;25.33;nan;101360.72;5008058;28;20038;-74
2022/04/15 09:09:12;;;;;;;5.53;4.80;;;;;;;25.69;nan;101356.22;5010213;28;20097;-74
2022/04/15 09:11:39;;;;;;;5.82;4.30;;;;;;;25.70;nan;101364.13;5010349;28;20441;-74
2022/04/15 09:14:12;;;;;;;8.13;5.25;;;;;;;24.97;nan;101362.38;5010142;28;20313;-75
2022/04/15 09:16:46;;;;;;;5.30;3.42;;;;;;;25.75;nan;101368.84;5009636;28;20521;-75
2022/04/15 09:19:12;;;;;;;6.13;4.93;;;;;;;26.13;nan;101370.34;5009853;28;20092;-74
2022/04/15 09:21:39;;;;;;;6.28;4.70;;;;;;;26.08;nan;101372.91;5001624;28;20058;-75
2022/04/15 09:24:07;;;;;;;6.63;4.30;;;;;;;26.25;nan;101363.03;5001273;28;20042;-74
2022/04/15 09:26:33;;;;;;;7.75;4.78;;;;;;;25.63;nan;101366.13;5009618;28;20034;-74
2022/04/15 09:28:59;;;;;;;7.50;4.57;;;;;;;25.90;nan;101363.84;5006864;28;20209;-74
2022/04/15 09:31:24;;;;;;;4.03;3.20;;;;;;;26.93;nan;101363.44;5010287;28;20030;-74
2022/04/15 09:33:57;;;;;;;5.88;3.83;;;;;;;27.15;nan;101367.16;5010135;28;20030;-74
2022/04/15 09:36:26;;;;;;;5.22;4.13;;;;;;;27.47;nan;101363.97;5008840;28;20040;-74
2022/04/15 09:38:56;;;;;;;5.22;3.13;;;;;;;27.98;nan;101359.41;5004317;28;20077;-75
2022/04/15 09:41:23;;;;;;;5.22;3.67;;;;;;;27.89;nan;101363.66;5004356;28;20537;-74
2022/04/15 09:43:52;;;;;;;7.35;4.90;;;;;;;27.42;nan;101361.97;4986998;28;20041;-74
2022/04/15 09:46:18;;;;;;;5.47;4.15;;;;;;;27.51;nan;101365.97;5003767;28;20372;-74
2022/04/15 09:49:03;;;;;;;6.55;4.18;;;;;;;26.87;nan;101360.63;5004686;28;20040;-74
2022/04/15 09:51:40;;;;;;;4.03;2.63;;;;;;;27.60;nan;101360.97;5005716;28;20050;-74
2022/04/15 09:54:09;;;;;;;5.28;3.60;;;;;;;28.03;nan;101353.22;4989180;28;20398;-74
2022/04/15 09:56:39;;;;;;;3.50;2.13;;;;;;;28.86;nan;101359.59;5004923;28;20038;-74
2022/04/15 09:59:09;;;;;;;4.18;2.45;;;;;;;29.60;nan;101363.66;5006457;28;20046;-75
2022/04/15 10:01:40;;;;;;;4.03;2.78;;;;;;;29.18;nan;101358.91;5007461;28;20058;-74
2022/04/15 10:04:06;;;;;;;;;;;;;;;30.03;nan;101356.41;5010989;28;20124;-74
2022/04/15 10:06:32;;;;;;;5.13;3.40;;;;;;;29.65;nan;101360.97;5006269;28;20008;-74
2022/04/15 10:09:01;;;;;;;4.75;3.33;;;;;;;28.69;nan;101358.84;5007726;28;20486;-74
2022/04/15 10:11:27;;;;;;;4.95;3.60;;;;;;;28.22;nan;101361.94;5000698;28;20034;-74
2022/04/15 10:13:55;;;;;;;4.03;2.75;;;;;;;28.44;nan;101360.13;5005663;28;20107;-74
2022/04/15 10:16:21;;;;;;;3.70;2.60;;;;;;;27.95;nan;101355.31;5003386;28;20102;-74
2022/04/15 10:18:47;;;;;;;3.70;2.17;;;;;;;28.40;nan;101364.41;5009740;28;20030;-74
2022/04/15 10:21:12;;;;;;;2.92;2.40;;;;;;;28.67;nan;101361.78;5009896;28;20030;-74
2022/04/15 10:23:38;;;;;;;3.85;2.30;;;;;;;29.34;nan;101355.25;5009484;28;20034;-73
2022/04/15 10:26:06;;;;;;;3.40;1.70;;;;;;;29.58;nan;101355.75;5009196;28;20041;-73
2022/04/15 10:28:40;;;;;;;2.35;1.40;;;;;;;28.89;nan;101352.81;5009709;28;20034;-73
2022/04/15 10:31:08;;;;;;;2.58;1.20;;;;;;;29.01;nan;101354.34;5010033;28;20041;-73
2022/04/15 10:33:35;;;;;;;2.50;1.40;;;;;;;28.86;nan;101345.97;5010393;28;20030;-73
2022/04/15 10:36:22;;;;;;;2.30;1.23;;;;;;;28.65;nan;101341.34;5010434;28;20104;-73
2022/04/15 10:39:03;;;;;;;2.88;1.35;;;;;;;29.18;nan;101346.09;5010137;28;20225;-73
2022/04/15 10:41:50;;;;;;;3.38;1.63;;;;;;;29.54;nan;101338.28;5009820;28;20426;-74
2022/04/15 10:44:31;;;;;;;3.28;1.90;;;;;;;29.34;nan;101343.53;5008555;28;20037;-74
2022/04/15 10:47:19;;;;;;;3.17;2.00;;;;;;;29.15;nan;101346.63;5009103;28;20057;-73
2022/04/15 10:50:06;;;;;;;2.85;1.95;;;;;;;29.11;nan;101337.31;4993445;28;20538;-74
2022/04/15 10:52:36;;;;;;;3.42;1.70;;;;;;;28.01;nan;101337.19;5001487;28;20096;-73
2022/04/15 10:55:02;;;;;;;2.97;1.77;;;;;;;28.95;nan;101330.84;4992073;28;20128;-73
2022/04/15 10:57:37;;;;;;;2.90;1.85;;;;;;;29.17;nan;101336.25;5012792;28;20034;-73
2022/04/15 11:03:23;;;;;;;1.90;1.17;;;;;;;31.82;nan;101340.69;5012716;28;20414;-74
2022/04/15 11:05:50;;;;;;;1.85;1.00;;;;;;;32.13;nan;101325.06;5012257;28;20468;-74
2022/04/15 11:08:18;;;;;;;2.90;1.30;;;;;;;31.30;nan;101337.09;5011665;28;20090;-74
2022/04/15 11:10:49;;;;;;;2.33;1.20;;;;;;;31.20;nan;101336.22;5012192;28;20538;-74
2022/04/15 11:13:30;;;;;;;1.90;1.30;;;;;;;31.49;nan;101331.13;5012304;28;20076;-74
2022/04/15 11:16:00;;;;;;;2.25;1.25;;;;;;;32.07;nan;101328.09;4995030;28;20109;-74
2022/04/15 11:18:50;;;;;;;1.80;0.90;;;;;;;32.13;nan;101327.81;5012066;28;20440;-74
2022/04/15 11:21:27;;;;;;;1.00;0.80;;;;;;;32.52;nan;101329.09;5012911;28;20049;-74
2022/04/15 11:23:55;;;;;;;1.77;1.00;;;;;;;32.68;nan;101327.94;5014000;28;20026;-74
2022/04/15 11:26:22;;;;;;;1.92;1.15;;;;;;;32.05;nan;101324.81;5011991;28;20037;-74
2022/04/15 11:28:50;;;;;;;1.85;1.20;;;;;;;31.07;nan;101330.19;5009352;28;20069;-76
2022/04/15 11:31:24;;;;;;;2.05;1.05;;;;;;;31.12;nan;101326.66;5003311;28;20163;-75
2022/04/15 11:33:50;;;;;;;1.65;0.98;;;;;;;31.23;nan;101319.31;5012136;28;20445;-75
2022/04/15 11:36:18;;;;;;;2.28;1.00;;;;;;;32.30;nan;101310.25;5011329;28;20034;-75
2022/04/15 11:38:45;;;;;;;1.42;0.85;;;;;;;31.38;nan;101316.59;5012182;28;20328;-75
2022/04/15 11:41:15;;;;;;;1.05;0.70;;;;;;;31.94;nan;101313.03;5011385;28;20038;-75
2022/04/15 11:43:41;;;;;;;1.63;0.90;;;;;;;31.98;nan;101307.88;5012313;28;20075;-76
2022/04/15 11:46:08;;;;;;;1.58;0.73;;;;;;;32.38;nan;101318.69;5011422;28;20030;-75
2022/04/15 11:48:33;;;;;;;1.42;0.65;;;;;;;33.15;nan;101312.88;5010822;28;20030;-76